KCRE/CRE METAR and TAF weather

Enter ICAO airport designator
Station Type Date Time Source
KCRE METAR 2021/09/28 04:53 UTC NOAA

KCRE 280453Z AUTO 24005KT 10SM CLR 22/18 A3006 RMK AO1 SLP181 T02170178 402670150


Station Type Date Time Source
KCRE Decoded METAR 2021/09/28 04:53 UTC NOAA

N. MYRTLE BCH.GRAND STRAND, SC, United States (KCRE) 33-49N 078-43W 10M
Sep 28, 2021 - 12:53 AM EDT / 2021.09.28 0453 UTC
Wind: from the WSW (240 degrees) at 6 MPH (5 KT):0
Visibility: 10 mile(s):0
Sky conditions: clear
Temperature: 71.1 F (21.7 C)
Dew Point: 64.0 F (17.8 C)
Relative Humidity: 78%
Pressure (altimeter): 30.06 in. Hg (1017 hPa)
ob: KCRE 280453Z AUTO 24005KT 10SM CLR 22/18 A3006 RMK AO1 SLP181 T02170178 402670150
cycle: 5

Station Type Date Time Source
KCRE TAF 2021/09/28 06:28 UTC NOAA

TAF KCRE 280527Z 2806/2906 24006KT P6SM FEW200
FM281800 20010KT P6SM FEW050
FM290300 24008KT P6SM SKC

Example: see airport list